Etusivu
METAR-TAF:

METAR-TAF

Lentoasemat :

Moskova-Šeremetjevo, Venäjä

Šeremetjevon kansainvälinen lentoasema

Leveyspiiri: 55-59N, Pituuspiiri: 037-30E, korkeus merenpinnasta: 190 m

Tämänhetkinen sää

Tämä raportti tehtiin 23 minuuttia sitten, kello 17.30 UTC
Tuuli 6 kn lännestä
Lämpötila -5°C
Kosteus 86%
Ilmanpaine 1016 hPa
Näkyvyys: 9000 m
Pilvistä 3400 ft:n korkeudessa

METAR: UUEE 191730Z 27003MPS 9000 OVC034 M05/M07 Q1016 R24R/550340 R24L/550345 NOSIG

Aika: 20:53 (17:53 UTC)

Sääennuste

Tämä raportti tehtiin 59 minuuttia sitten, kello 16.54 UTC
Ennuste voimassa 19. päivästä klo 18 UTC - 20. päivään klo 18 UTC
Tuuli 6 kn luoteesta
Näkyvyys: 9000 m
Pilvistä 1100 ft:n korkeudessa
Ajoittain
19. päivästä klo 18 UTC - 20. päivään klo 18 UTC
Näkyvyys: 3100 m
Hajanaisia pilviä 1200 ft:n korkeudessa, Cumulonimbus.
heikkoja lumikuuroja

TAF: UUEE 191654Z 1918/2018 31003MPS 9000 OVC011 TXM05/1918Z TNM08/2003Z TEMPO 1918/2018 3100 -SHSN SCT012CB

Säähavainnot ja -ennusteet yli 4000 lentoasemalta (METAR- ja TAF-raportit).

Käytössä olevat sääasemat on merkitty karttaan keltaisilla ja punaisilla pisteillä.

Aseta hiiri pisteen päälle nähdäksesi sääaseman nimen.

Klikkaa sitten nähdäksesi säähavainnot ja -ennusteet.

Kartan vaihtaminen: klikkaa mustalla rastilla varustettuja vihreitä pisteitä, niin voit zoomata sisään; viivalla varustettua vihreää pistettä, niin voit zoomata ulos tai vihreitä nuolia, niin pääset viereisille kartoille.


METAR-TAF: